sensor_id;sensor_type;location;lat;lon;timestamp;temperature;humidity
23079;DHT22;11707;50.830;4.364;2022-12-18T00:02:18;-1.40;99.90
23079;DHT22;11707;50.830;4.364;2022-12-18T00:04:44;-1.20;99.90
23079;DHT22;11707;50.830;4.364;2022-12-18T00:07:10;-1.40;99.90
23079;DHT22;11707;50.830;4.364;2022-12-18T00:09:36;-1.40;99.90
23079;DHT22;11707;50.830;4.364;2022-12-18T00:12:01;-1.40;99.90
23079;DHT22;11707;50.830;4.364;2022-12-18T00:14:27;-1.40;99.90
23079;DHT22;11707;50.830;4.364;2022-12-18T00:16:53;-1.20;99.90
23079;DHT22;11707;50.830;4.364;2022-12-18T00:19:19;-1.20;99.90
23079;DHT22;11707;50.830;4.364;2022-12-18T00:21:45;-1.30;99.90
23079;DHT22;11707;50.830;4.364;2022-12-18T00:24:11;-1.30;99.90
23079;DHT22;11707;50.830;4.364;2022-12-18T00:26:38;-1.30;99.90
23079;DHT22;11707;50.830;4.364;2022-12-18T00:29:12;-1.40;99.90
23079;DHT22;11707;50.830;4.364;2022-12-18T00:31:40;-1.40;99.90
23079;DHT22;11707;50.830;4.364;2022-12-18T00:34:06;-1.50;99.90
23079;DHT22;11707;50.830;4.364;2022-12-18T00:36:33;-1.60;99.90
23079;DHT22;11707;50.830;4.364;2022-12-18T00:39:04;-1.60;99.90
23079;DHT22;11707;50.830;4.364;2022-12-18T00:41:30;-1.80;99.90
23079;DHT22;11707;50.830;4.364;2022-12-18T00:44:16;-1.70;99.90
23079;DHT22;11707;50.830;4.364;2022-12-18T00:46:43;-1.80;99.90
23079;DHT22;11707;50.830;4.364;2022-12-18T00:49:14;-1.80;99.90
23079;DHT22;11707;50.830;4.364;2022-12-18T00:51:40;-1.70;99.90
23079;DHT22;11707;50.830;4.364;2022-12-18T00:54:06;-1.70;99.90
23079;DHT22;11707;50.830;4.364;2022-12-18T00:56:32;-1.60;99.90
23079;DHT22;11707;50.830;4.364;2022-12-18T00:58:57;-1.50;99.90
23079;DHT22;11707;50.830;4.364;2022-12-18T01:01:23;-1.50;99.90
23079;DHT22;11707;50.830;4.364;2022-12-18T01:03:49;-1.60;99.90
23079;DHT22;11707;50.830;4.364;2022-12-18T01:06:15;-1.50;99.90
23079;DHT22;11707;50.830;4.364;2022-12-18T01:08:42;-1.40;99.90
23079;DHT22;11707;50.830;4.364;2022-12-18T01:11:16;-1.30;99.90
23079;DHT22;11707;50.830;4.364;2022-12-18T01:13:42;-1.20;99.90
23079;DHT22;11707;50.830;4.364;2022-12-18T01:16:08;-1.10;99.90
23079;DHT22;11707;50.830;4.364;2022-12-18T01:18:36;-1.10;99.90
23079;DHT22;11707;50.830;4.364;2022-12-18T01:21:06;-1.10;99.90
23079;DHT22;11707;50.830;4.364;2022-12-18T01:23:32;-1.20;99.90
23079;DHT22;11707;50.830;4.364;2022-12-18T01:26:03;-1.20;99.90
23079;DHT22;11707;50.830;4.364;2022-12-18T01:28:28;-1.40;99.90
23079;DHT22;11707;50.830;4.364;2022-12-18T01:30:54;-1.40;99.90
23079;DHT22;11707;50.830;4.364;2022-12-18T01:33:20;-1.50;99.90
23079;DHT22;11707;50.830;4.364;2022-12-18T01:35:45;-1.60;99.90
23079;DHT22;11707;50.830;4.364;2022-12-18T01:38:11;-1.70;99.90
23079;DHT22;11707;50.830;4.364;2022-12-18T01:40:37;-1.80;99.90
23079;DHT22;11707;50.830;4.364;2022-12-18T01:43:02;-1.80;99.90
23079;DHT22;11707;50.830;4.364;2022-12-18T01:45:30;-1.80;99.90
23079;DHT22;11707;50.830;4.364;2022-12-18T01:48:03;-1.90;99.90
23079;DHT22;11707;50.830;4.364;2022-12-18T01:53:05;-1.80;99.90
23079;DHT22;11707;50.830;4.364;2022-12-18T01:55:36;-1.80;99.90
23079;DHT22;11707;50.830;4.364;2022-12-18T01:58:03;-1.80;99.90
23079;DHT22;11707;50.830;4.364;2022-12-18T02:00:30;-1.80;99.90
23079;DHT22;11707;50.830;4.364;2022-12-18T02:02:56;-1.80;99.90
23079;DHT22;11707;50.830;4.364;2022-12-18T02:08:34;-1.80;99.90
23079;DHT22;11707;50.830;4.364;2022-12-18T02:14:30;-1.80;99.90
23079;DHT22;11707;50.830;4.364;2022-12-18T02:17:22;-1.70;99.90
23079;DHT22;11707;50.830;4.364;2022-12-18T02:23:04;-1.70;99.90
23079;DHT22;11707;50.830;4.364;2022-12-18T02:28:13;-1.60;99.90
23079;DHT22;11707;50.830;4.364;2022-12-18T02:30:42;-1.50;99.90
23079;DHT22;11707;50.830;4.364;2022-12-18T02:33:09;-1.50;99.90
23079;DHT22;11707;50.830;4.364;2022-12-18T02:35:37;-1.50;99.90
23079;DHT22;11707;50.830;4.364;2022-12-18T02:38:04;-1.50;99.90
23079;DHT22;11707;50.830;4.364;2022-12-18T02:40:30;-1.60;99.90
23079;DHT22;11707;50.830;4.364;2022-12-18T02:43:06;-1.50;99.90
23079;DHT22;11707;50.830;4.364;2022-12-18T02:45:32;-1.60;99.90
23079;DHT22;11707;50.830;4.364;2022-12-18T02:47:58;-1.50;99.90
23079;DHT22;11707;50.830;4.364;2022-12-18T02:50:40;-1.50;99.90
23079;DHT22;11707;50.830;4.364;2022-12-18T02:56:11;-1.80;99.90
23079;DHT22;11707;50.830;4.364;2022-12-18T02:58:59;-1.90;99.90
23079;DHT22;11707;50.830;4.364;2022-12-18T03:01:33;-1.80;99.90
23079;DHT22;11707;50.830;4.364;2022-12-18T03:04:07;-1.90;99.90
23079;DHT22;11707;50.830;4.364;2022-12-18T03:06:41;-1.80;99.90
23079;DHT22;11707;50.830;4.364;2022-12-18T03:09:17;-1.90;99.90
23079;DHT22;11707;50.830;4.364;2022-12-18T03:11:49;-2.00;99.90
23079;DHT22;11707;50.830;4.364;2022-12-18T03:14:38;-2.10;99.90
23079;DHT22;11707;50.830;4.364;2022-12-18T03:17:09;-2.00;99.90
23079;DHT22;11707;50.830;4.364;2022-12-18T03:19:36;-2.00;99.90
23079;DHT22;11707;50.830;4.364;2022-12-18T03:22:06;-1.80;99.90
23079;DHT22;11707;50.830;4.364;2022-12-18T03:24:33;-2.10;99.90
23079;DHT22;11707;50.830;4.364;2022-12-18T03:27:02;-2.20;99.90
23079;DHT22;11707;50.830;4.364;2022-12-18T03:29:44;-2.20;99.90
23079;DHT22;11707;50.830;4.364;2022-12-18T03:32:19;-2.20;99.90
23079;DHT22;11707;50.830;4.364;2022-12-18T03:34:48;-2.10;99.90
23079;DHT22;11707;50.830;4.364;2022-12-18T03:37:16;-2.20;99.90
23079;DHT22;11707;50.830;4.364;2022-12-18T03:39:41;-2.20;99.90
23079;DHT22;11707;50.830;4.364;2022-12-18T03:42:19;-2.20;99.90
23079;DHT22;11707;50.830;4.364;2022-12-18T03:45:06;-2.20;99.90
23079;DHT22;11707;50.830;4.364;2022-12-18T03:47:36;-2.30;99.90
23079;DHT22;11707;50.830;4.364;2022-12-18T03:50:29;-2.20;99.90
23079;DHT22;11707;50.830;4.364;2022-12-18T03:53:32;-2.20;99.90
23079;DHT22;11707;50.830;4.364;2022-12-18T03:56:02;-2.20;99.90
23079;DHT22;11707;50.830;4.364;2022-12-18T03:58:32;-2.10;99.90
23079;DHT22;11707;50.830;4.364;2022-12-18T04:01:03;-2.20;99.90
23079;DHT22;11707;50.830;4.364;2022-12-18T04:03:30;-2.30;99.90
23079;DHT22;11707;50.830;4.364;2022-12-18T04:05:59;-2.30;99.90
23079;DHT22;11707;50.830;4.364;2022-12-18T04:08:25;-2.40;99.90
23079;DHT22;11707;50.830;4.364;2022-12-18T04:10:51;-2.40;99.90
23079;DHT22;11707;50.830;4.364;2022-12-18T04:13:43;-2.40;99.90
23079;DHT22;11707;50.830;4.364;2022-12-18T04:16:09;-2.30;99.90
23079;DHT22;11707;50.830;4.364;2022-12-18T04:18:35;-2.30;99.90
23079;DHT22;11707;50.830;4.364;2022-12-18T04:21:02;-2.20;99.90
23079;DHT22;11707;50.830;4.364;2022-12-18T04:23:27;-2.30;99.90
23079;DHT22;11707;50.830;4.364;2022-12-18T04:25:53;-2.40;99.90
23079;DHT22;11707;50.830;4.364;2022-12-18T04:28:19;-2.30;99.90
23079;DHT22;11707;50.830;4.364;2022-12-18T04:30:45;-2.30;99.90
23079;DHT22;11707;50.830;4.364;2022-12-18T04:33:15;-2.30;99.90
23079;DHT22;11707;50.830;4.364;2022-12-18T04:35:41;-2.40;99.90
23079;DHT22;11707;50.830;4.364;2022-12-18T04:38:08;-2.30;99.90
23079;DHT22;11707;50.830;4.364;2022-12-18T04:40:34;-2.20;99.90
23079;DHT22;11707;50.830;4.364;2022-12-18T04:43:00;-2.30;99.90
23079;DHT22;11707;50.830;4.364;2022-12-18T04:45:26;-2.10;99.90
23079;DHT22;11707;50.830;4.364;2022-12-18T04:47:51;-2.20;99.90
23079;DHT22;11707;50.830;4.364;2022-12-18T04:50:17;-2.10;99.90
23079;DHT22;11707;50.830;4.364;2022-12-18T04:52:43;-2.20;99.90
23079;DHT22;11707;50.830;4.364;2022-12-18T04:55:11;-2.30;99.90
23079;DHT22;11707;50.830;4.364;2022-12-18T04:57:37;-2.30;99.90
23079;DHT22;11707;50.830;4.364;2022-12-18T05:00:06;-2.30;99.90
23079;DHT22;11707;50.830;4.364;2022-12-18T05:02:32;-2.30;99.90
23079;DHT22;11707;50.830;4.364;2022-12-18T05:04:58;-2.20;99.90
23079;DHT22;11707;50.830;4.364;2022-12-18T05:07:24;-2.20;99.90
23079;DHT22;11707;50.830;4.364;2022-12-18T05:09:49;-2.10;99.90
23079;DHT22;11707;50.830;4.364;2022-12-18T05:12:16;-2.30;99.90
23079;DHT22;11707;50.830;4.364;2022-12-18T05:14:42;-2.20;99.90
23079;DHT22;11707;50.830;4.364;2022-12-18T05:17:07;-2.30;99.90
23079;DHT22;11707;50.830;4.364;2022-12-18T05:19:33;-2.30;99.90
23079;DHT22;11707;50.830;4.364;2022-12-18T05:21:59;-2.50;99.90
23079;DHT22;11707;50.830;4.364;2022-12-18T05:24:25;-2.60;99.90
23079;DHT22;11707;50.830;4.364;2022-12-18T05:26:51;-2.60;99.90
23079;DHT22;11707;50.830;4.364;2022-12-18T05:29:19;-2.70;99.90
23079;DHT22;11707;50.830;4.364;2022-12-18T05:31:45;-2.80;99.90
23079;DHT22;11707;50.830;4.364;2022-12-18T05:34:11;-2.80;99.90
23079;DHT22;11707;50.830;4.364;2022-12-18T05:36:37;-2.80;99.90
23079;DHT22;11707;50.830;4.364;2022-12-18T05:39:03;-2.70;99.90
23079;DHT22;11707;50.830;4.364;2022-12-18T05:41:28;-2.60;99.90
23079;DHT22;11707;50.830;4.364;2022-12-18T05:43:54;-2.70;99.90
23079;DHT22;11707;50.830;4.364;2022-12-18T05:46:20;-2.60;99.90
23079;DHT22;11707;50.830;4.364;2022-12-18T05:48:46;-2.50;99.90
23079;DHT22;11707;50.830;4.364;2022-12-18T05:51:15;-2.40;99.90
23079;DHT22;11707;50.830;4.364;2022-12-18T05:53:42;-2.20;99.90
23079;DHT22;11707;50.830;4.364;2022-12-18T05:56:11;-2.00;99.90
23079;DHT22;11707;50.830;4.364;2022-12-18T05:58:37;-1.80;99.90
23079;DHT22;11707;50.830;4.364;2022-12-18T06:01:09;-1.70;99.90
23079;DHT22;11707;50.830;4.364;2022-12-18T06:03:36;-1.80;99.90
23079;DHT22;11707;50.830;4.364;2022-12-18T06:06:02;-2.00;99.90
23079;DHT22;11707;50.830;4.364;2022-12-18T06:08:27;-2.20;99.90
23079;DHT22;11707;50.830;4.364;2022-12-18T06:10:53;-2.10;99.90
23079;DHT22;11707;50.830;4.364;2022-12-18T06:13:20;-2.10;99.90
23079;DHT22;11707;50.830;4.364;2022-12-18T06:15:46;-2.00;99.90
23079;DHT22;11707;50.830;4.364;2022-12-18T06:18:12;-2.10;99.90
23079;DHT22;11707;50.830;4.364;2022-12-18T06:20:37;-2.00;99.90
23079;DHT22;11707;50.830;4.364;2022-12-18T06:23:05;-2.10;99.90
23079;DHT22;11707;50.830;4.364;2022-12-18T06:25:32;-2.20;99.90
23079;DHT22;11707;50.830;4.364;2022-12-18T06:27:58;-2.10;99.90
23079;DHT22;11707;50.830;4.364;2022-12-18T06:30:24;-2.00;99.90
23079;DHT22;11707;50.830;4.364;2022-12-18T06:32:50;-2.00;99.90
23079;DHT22;11707;50.830;4.364;2022-12-18T06:35:16;-2.30;99.90
23079;DHT22;11707;50.830;4.364;2022-12-18T06:37:41;-2.10;99.90
23079;DHT22;11707;50.830;4.364;2022-12-18T06:40:07;-2.10;99.90
23079;DHT22;11707;50.830;4.364;2022-12-18T06:42:33;-2.30;99.90
23079;DHT22;11707;50.830;4.364;2022-12-18T06:44:59;-2.40;99.90
23079;DHT22;11707;50.830;4.364;2022-12-18T06:47:25;-2.50;99.90
23079;DHT22;11707;50.830;4.364;2022-12-18T06:49:50;-2.40;99.90
23079;DHT22;11707;50.830;4.364;2022-12-18T06:52:16;-2.30;99.90
23079;DHT22;11707;50.830;4.364;2022-12-18T06:54:42;-2.30;99.90
23079;DHT22;11707;50.830;4.364;2022-12-18T06:57:07;-2.20;99.90
23079;DHT22;11707;50.830;4.364;2022-12-18T06:59:33;-2.20;99.90
23079;DHT22;11707;50.830;4.364;2022-12-18T07:01:59;-2.40;99.90
23079;DHT22;11707;50.830;4.364;2022-12-18T07:04:29;-2.50;99.90
23079;DHT22;11707;50.830;4.364;2022-12-18T07:06:55;-2.60;99.90
23079;DHT22;11707;50.830;4.364;2022-12-18T07:09:21;-2.60;99.90
23079;DHT22;11707;50.830;4.364;2022-12-18T07:11:46;-2.50;99.90
23079;DHT22;11707;50.830;4.364;2022-12-18T07:14:12;-2.60;99.90
23079;DHT22;11707;50.830;4.364;2022-12-18T07:16:38;-2.50;99.90
23079;DHT22;11707;50.830;4.364;2022-12-18T07:19:04;-2.50;99.90
23079;DHT22;11707;50.830;4.364;2022-12-18T07:21:30;-2.60;99.90
23079;DHT22;11707;50.830;4.364;2022-12-18T07:23:56;-2.50;99.90
23079;DHT22;11707;50.830;4.364;2022-12-18T07:26:22;-2.50;99.90
23079;DHT22;11707;50.830;4.364;2022-12-18T07:28:48;-2.50;99.90
23079;DHT22;11707;50.830;4.364;2022-12-18T07:31:20;-2.50;99.90
23079;DHT22;11707;50.830;4.364;2022-12-18T07:33:46;-2.50;99.90
23079;DHT22;11707;50.830;4.364;2022-12-18T07:36:12;-2.70;99.90
23079;DHT22;11707;50.830;4.364;2022-12-18T07:38:38;-2.80;99.90
23079;DHT22;11707;50.830;4.364;2022-12-18T07:41:06;-2.70;99.90
23079;DHT22;11707;50.830;4.364;2022-12-18T07:43:33;-2.50;99.90
23079;DHT22;11707;50.830;4.364;2022-12-18T07:45:59;-2.40;99.90
23079;DHT22;11707;50.830;4.364;2022-12-18T07:48:25;-2.40;99.90
23079;DHT22;11707;50.830;4.364;2022-12-18T07:50:51;-2.60;99.90
23079;DHT22;11707;50.830;4.364;2022-12-18T07:53:16;-2.70;99.90
23079;DHT22;11707;50.830;4.364;2022-12-18T07:55:42;-2.70;99.90
23079;DHT22;11707;50.830;4.364;2022-12-18T07:58:09;-2.60;99.90
23079;DHT22;11707;50.830;4.364;2022-12-18T08:00:35;-2.50;99.90
23079;DHT22;11707;50.830;4.364;2022-12-18T08:03:00;-2.60;99.90
23079;DHT22;11707;50.830;4.364;2022-12-18T08:05:26;-2.20;99.90
23079;DHT22;11707;50.830;4.364;2022-12-18T08:07:53;-2.40;99.90
23079;DHT22;11707;50.830;4.364;2022-12-18T08:10:19;-2.40;99.90
23079;DHT22;11707;50.830;4.364;2022-12-18T08:12:45;-2.30;99.90
23079;DHT22;11707;50.830;4.364;2022-12-18T08:15:11;-2.10;99.90
23079;DHT22;11707;50.830;4.364;2022-12-18T08:17:37;-2.00;99.90
23079;DHT22;11707;50.830;4.364;2022-12-18T08:20:02;-2.10;99.90
23079;DHT22;11707;50.830;4.364;2022-12-18T08:22:28;-2.00;99.90
23079;DHT22;11707;50.830;4.364;2022-12-18T08:24:54;-2.10;99.90
23079;DHT22;11707;50.830;4.364;2022-12-18T08:27:20;-1.90;99.90
23079;DHT22;11707;50.830;4.364;2022-12-18T08:29:45;-2.10;99.90
23079;DHT22;11707;50.830;4.364;2022-12-18T08:32:11;-2.10;99.90
23079;DHT22;11707;50.830;4.364;2022-12-18T08:34:37;-2.00;99.90
23079;DHT22;11707;50.830;4.364;2022-12-18T08:37:03;-1.90;99.90
23079;DHT22;11707;50.830;4.364;2022-12-18T08:39:29;-1.80;99.90
23079;DHT22;11707;50.830;4.364;2022-12-18T08:41:54;-1.80;99.90
23079;DHT22;11707;50.830;4.364;2022-12-18T08:44:39;-1.80;99.90
23079;DHT22;11707;50.830;4.364;2022-12-18T08:47:08;-1.90;99.90
23079;DHT22;11707;50.830;4.364;2022-12-18T08:49:34;-1.80;99.90
23079;DHT22;11707;50.830;4.364;2022-12-18T08:52:00;-1.80;99.90
23079;DHT22;11707;50.830;4.364;2022-12-18T08:54:28;-1.90;99.90
23079;DHT22;11707;50.830;4.364;2022-12-18T08:56:53;-1.90;99.90
23079;DHT22;11707;50.830;4.364;2022-12-18T08:59:19;-1.70;99.90
23079;DHT22;11707;50.830;4.364;2022-12-18T09:01:46;-1.60;99.90
23079;DHT22;11707;50.830;4.364;2022-12-18T09:04:12;-1.40;99.90
23079;DHT22;11707;50.830;4.364;2022-12-18T09:06:39;-1.30;99.90
23079;DHT22;11707;50.830;4.364;2022-12-18T09:09:05;-1.20;99.90
23079;DHT22;11707;50.830;4.364;2022-12-18T09:11:32;-1.10;99.90
23079;DHT22;11707;50.830;4.364;2022-12-18T09:14:00;-1.00;99.90
23079;DHT22;11707;50.830;4.364;2022-12-18T09:16:27;-0.90;99.90
23079;DHT22;11707;50.830;4.364;2022-12-18T09:18:54;-1.00;99.90
23079;DHT22;11707;50.830;4.364;2022-12-18T09:21:26;-1.00;99.90
23079;DHT22;11707;50.830;4.364;2022-12-18T09:23:53;-1.10;99.90
23079;DHT22;11707;50.830;4.364;2022-12-18T09:26:20;-1.10;99.90
23079;DHT22;11707;50.830;4.364;2022-12-18T09:28:46;-0.80;99.90
23079;DHT22;11707;50.830;4.364;2022-12-18T09:31:13;-0.70;99.90
23079;DHT22;11707;50.830;4.364;2022-12-18T09:33:39;-0.60;99.90
23079;DHT22;11707;50.830;4.364;2022-12-18T09:36:14;-0.50;99.90
23079;DHT22;11707;50.830;4.364;2022-12-18T09:38:40;-0.30;99.90
23079;DHT22;11707;50.830;4.364;2022-12-18T09:44:00;-0.20;99.90
23079;DHT22;11707;50.830;4.364;2022-12-18T09:46:29;-0.60;99.90
23079;DHT22;11707;50.830;4.364;2022-12-18T09:49:02;-0.50;99.90
23079;DHT22;11707;50.830;4.364;2022-12-18T09:51:37;-0.60;99.90
23079;DHT22;11707;50.830;4.364;2022-12-18T09:54:14;-0.60;99.90
23079;DHT22;11707;50.830;4.364;2022-12-18T09:56:42;-0.50;99.90
23079;DHT22;11707;50.830;4.364;2022-12-18T09:59:23;-0.40;99.90
23079;DHT22;11707;50.830;4.364;2022-12-18T10:01:49;-0.40;99.90
23079;DHT22;11707;50.830;4.364;2022-12-18T10:04:15;-0.40;99.90
23079;DHT22;11707;50.830;4.364;2022-12-18T10:06:46;-0.30;99.90
23079;DHT22;11707;50.830;4.364;2022-12-18T10:12:02;-0.10;99.90
23079;DHT22;11707;50.830;4.364;2022-12-18T10:14:51;-0.10;99.90
23079;DHT22;11707;50.830;4.364;2022-12-18T10:17:35;0.00;99.90
23079;DHT22;11707;50.830;4.364;2022-12-18T10:20:14;-0.10;99.90
23079;DHT22;11707;50.830;4.364;2022-12-18T10:28:26;-0.10;99.90
23079;DHT22;11707;50.830;4.364;2022-12-18T10:30:52;-0.10;99.90
23079;DHT22;11707;50.830;4.364;2022-12-18T10:33:22;-0.10;99.90
23079;DHT22;11707;50.830;4.364;2022-12-18T10:35:51;0.10;99.90
23079;DHT22;11707;50.830;4.364;2022-12-18T10:40:57;0.30;99.90
23079;DHT22;11707;50.830;4.364;2022-12-18T10:46:02;0.50;99.90
23079;DHT22;11707;50.830;4.364;2022-12-18T10:48:30;0.60;99.90
23079;DHT22;11707;50.830;4.364;2022-12-18T10:50:56;0.60;99.90
23079;DHT22;11707;50.830;4.364;2022-12-18T10:53:24;0.70;99.90
23079;DHT22;11707;50.830;4.364;2022-12-18T10:55:52;0.70;99.90
23079;DHT22;11707;50.830;4.364;2022-12-18T10:58:29;0.90;99.90
23079;DHT22;11707;50.830;4.364;2022-12-18T11:01:14;1.00;99.90
23079;DHT22;11707;50.830;4.364;2022-12-18T11:04:01;1.10;99.90
23079;DHT22;11707;50.830;4.364;2022-12-18T11:06:27;1.40;99.90
23079;DHT22;11707;50.830;4.364;2022-12-18T11:09:20;1.30;99.90
23079;DHT22;11707;50.830;4.364;2022-12-18T11:11:50;1.50;99.90
23079;DHT22;11707;50.830;4.364;2022-12-18T11:14:23;1.50;99.90
23079;DHT22;11707;50.830;4.364;2022-12-18T11:16:50;1.50;99.90
23079;DHT22;11707;50.830;4.364;2022-12-18T11:19:27;1.60;99.90
23079;DHT22;11707;50.830;4.364;2022-12-18T11:21:54;1.80;99.90
23079;DHT22;11707;50.830;4.364;2022-12-18T11:24:31;1.80;99.90
23079;DHT22;11707;50.830;4.364;2022-12-18T11:27:03;1.90;99.90
23079;DHT22;11707;50.830;4.364;2022-12-18T11:29:35;1.70;99.90
23079;DHT22;11707;50.830;4.364;2022-12-18T11:32:39;1.60;99.90
23079;DHT22;11707;50.830;4.364;2022-12-18T11:38:29;1.60;99.90
23079;DHT22;11707;50.830;4.364;2022-12-18T11:41:00;1.80;99.90
23079;DHT22;11707;50.830;4.364;2022-12-18T11:43:43;1.80;99.90
23079;DHT22;11707;50.830;4.364;2022-12-18T11:46:15;1.60;99.90
23079;DHT22;11707;50.830;4.364;2022-12-18T11:49:01;1.80;99.90
23079;DHT22;11707;50.830;4.364;2022-12-18T11:51:43;2.00;99.90
23079;DHT22;11707;50.830;4.364;2022-12-18T11:54:14;1.50;99.90
23079;DHT22;11707;50.830;4.364;2022-12-18T11:57:16;1.50;99.90
23079;DHT22;11707;50.830;4.364;2022-12-18T12:00:01;1.50;99.90
23079;DHT22;11707;50.830;4.364;2022-12-18T12:08:35;1.50;99.90
23079;DHT22;11707;50.830;4.364;2022-12-18T12:22:07;1.90;99.90
23079;DHT22;11707;50.830;4.364;2022-12-18T12:28:00;1.90;99.90
23079;DHT22;11707;50.830;4.364;2022-12-18T12:33:26;2.00;99.90
23079;DHT22;11707;50.830;4.364;2022-12-18T12:39:01;2.00;99.90
23079;DHT22;11707;50.830;4.364;2022-12-18T12:41:31;1.70;99.90
23079;DHT22;11707;50.830;4.364;2022-12-18T12:44:27;1.70;99.90
23079;DHT22;11707;50.830;4.364;2022-12-18T12:46:59;1.90;99.90
23079;DHT22;11707;50.830;4.364;2022-12-18T12:49:28;1.80;99.90
23079;DHT22;11707;50.830;4.364;2022-12-18T12:53:05;1.70;99.90
23079;DHT22;11707;50.830;4.364;2022-12-18T12:54:59;1.80;99.90
23079;DHT22;11707;50.830;4.364;2022-12-18T12:57:37;1.80;99.90
23079;DHT22;11707;50.830;4.364;2022-12-18T13:00:18;1.80;99.90
23079;DHT22;11707;50.830;4.364;2022-12-18T13:06:00;2.10;99.90
23079;DHT22;11707;50.830;4.364;2022-12-18T13:08:30;2.20;99.90
23079;DHT22;11707;50.830;4.364;2022-12-18T13:11:00;1.90;99.90
23079;DHT22;11707;50.830;4.364;2022-12-18T13:13:53;1.90;99.90
23079;DHT22;11707;50.830;4.364;2022-12-18T13:16:21;1.90;99.90
23079;DHT22;11707;50.830;4.364;2022-12-18T13:18:54;2.00;99.90
23079;DHT22;11707;50.830;4.364;2022-12-18T13:21:26;1.90;99.90
23079;DHT22;11707;50.830;4.364;2022-12-18T13:23:53;1.90;99.90
23079;DHT22;11707;50.830;4.364;2022-12-18T13:32:00;1.80;99.90
23079;DHT22;11707;50.830;4.364;2022-12-18T13:34:20;1.80;99.90
23079;DHT22;11707;50.830;4.364;2022-12-18T13:36:47;1.60;99.90
23079;DHT22;11707;50.830;4.364;2022-12-18T13:41:49;1.60;99.90
23079;DHT22;11707;50.830;4.364;2022-12-18T13:44:33;1.60;99.90
23079;DHT22;11707;50.830;4.364;2022-12-18T13:47:00;1.60;99.90
23079;DHT22;11707;50.830;4.364;2022-12-18T13:49:41;1.60;99.90
23079;DHT22;11707;50.830;4.364;2022-12-18T13:52:26;1.70;99.90
23079;DHT22;11707;50.830;4.364;2022-12-18T13:54:57;1.80;99.90
23079;DHT22;11707;50.830;4.364;2022-12-18T13:59:57;1.70;99.90
23079;DHT22;11707;50.830;4.364;2022-12-18T14:02:25;1.60;99.90
23079;DHT22;11707;50.830;4.364;2022-12-18T14:04:52;1.60;99.90
23079;DHT22;11707;50.830;4.364;2022-12-18T14:07:21;1.60;99.90
23079;DHT22;11707;50.830;4.364;2022-12-18T14:10:01;1.60;99.90
23079;DHT22;11707;50.830;4.364;2022-12-18T14:12:30;1.70;99.90
23079;DHT22;11707;50.830;4.364;2022-12-18T14:20:29;1.40;99.90
23079;DHT22;11707;50.830;4.364;2022-12-18T14:22:57;1.40;99.90
23079;DHT22;11707;50.830;4.364;2022-12-18T14:25:25;1.50;99.90
23079;DHT22;11707;50.830;4.364;2022-12-18T14:28:02;1.70;99.90
23079;DHT22;11707;50.830;4.364;2022-12-18T14:33:06;1.70;99.90
23079;DHT22;11707;50.830;4.364;2022-12-18T14:35:36;1.80;99.90
23079;DHT22;11707;50.830;4.364;2022-12-18T14:38:26;1.70;99.90
23079;DHT22;11707;50.830;4.364;2022-12-18T14:41:03;1.90;99.90
23079;DHT22;11707;50.830;4.364;2022-12-18T14:43:35;2.00;99.90
23079;DHT22;11707;50.830;4.364;2022-12-18T14:46:01;1.80;99.90
23079;DHT22;11707;50.830;4.364;2022-12-18T14:48:35;1.80;99.90
23079;DHT22;11707;50.830;4.364;2022-12-18T14:51:25;1.90;99.90
23079;DHT22;11707;50.830;4.364;2022-12-18T14:53:58;1.80;99.90
23079;DHT22;11707;50.830;4.364;2022-12-18T14:56:36;1.90;99.90
23079;DHT22;11707;50.830;4.364;2022-12-18T14:59:03;1.80;99.90
23079;DHT22;11707;50.830;4.364;2022-12-18T15:01:36;1.80;99.90
23079;DHT22;11707;50.830;4.364;2022-12-18T15:04:03;1.70;99.90
23079;DHT22;11707;50.830;4.364;2022-12-18T15:06:35;1.70;99.90
23079;DHT22;11707;50.830;4.364;2022-12-18T15:09:24;1.90;99.90
23079;DHT22;11707;50.830;4.364;2022-12-18T15:11:56;1.70;99.90
23079;DHT22;11707;50.830;4.364;2022-12-18T15:16:54;1.90;99.90
23079;DHT22;11707;50.830;4.364;2022-12-18T15:19:22;1.90;99.90
23079;DHT22;11707;50.830;4.364;2022-12-18T15:21:49;1.90;99.90
23079;DHT22;11707;50.830;4.364;2022-12-18T15:24:22;1.70;99.90
23079;DHT22;11707;50.830;4.364;2022-12-18T15:26:49;1.70;99.90
23079;DHT22;11707;50.830;4.364;2022-12-18T15:29:22;1.80;99.90
23079;DHT22;11707;50.830;4.364;2022-12-18T15:32:10;1.80;99.90
23079;DHT22;11707;50.830;4.364;2022-12-18T15:34:41;1.80;99.90
23079;DHT22;11707;50.830;4.364;2022-12-18T15:37:07;1.90;99.90
23079;DHT22;11707;50.830;4.364;2022-12-18T15:39:33;1.80;99.90
23079;DHT22;11707;50.830;4.364;2022-12-18T15:42:01;1.80;99.90
23079;DHT22;11707;50.830;4.364;2022-12-18T15:44:46;1.90;99.90
23079;DHT22;11707;50.830;4.364;2022-12-18T15:47:12;1.80;99.90
23079;DHT22;11707;50.830;4.364;2022-12-18T15:49:38;1.80;99.90
23079;DHT22;11707;50.830;4.364;2022-12-18T15:52:05;1.90;99.90
23079;DHT22;11707;50.830;4.364;2022-12-18T15:54:31;2.00;99.90
23079;DHT22;11707;50.830;4.364;2022-12-18T15:57:18;2.10;99.90
23079;DHT22;11707;50.830;4.364;2022-12-18T15:59:51;2.00;99.90
23079;DHT22;11707;50.830;4.364;2022-12-18T16:02:19;2.00;99.90
23079;DHT22;11707;50.830;4.364;2022-12-18T16:04:45;2.10;99.90
23079;DHT22;11707;50.830;4.364;2022-12-18T16:07:11;2.00;99.90
23079;DHT22;11707;50.830;4.364;2022-12-18T16:09:37;1.90;99.90
23079;DHT22;11707;50.830;4.364;2022-12-18T16:12:05;1.90;99.90
23079;DHT22;11707;50.830;4.364;2022-12-18T16:14:32;1.90;99.90
23079;DHT22;11707;50.830;4.364;2022-12-18T16:17:00;2.00;99.90
23079;DHT22;11707;50.830;4.364;2022-12-18T16:19:27;2.00;99.90
23079;DHT22;11707;50.830;4.364;2022-12-18T16:21:56;2.00;99.90
23079;DHT22;11707;50.830;4.364;2022-12-18T16:24:30;2.00;99.90
23079;DHT22;11707;50.830;4.364;2022-12-18T16:26:58;2.10;99.90
23079;DHT22;11707;50.830;4.364;2022-12-18T16:29:25;2.00;99.90
23079;DHT22;11707;50.830;4.364;2022-12-18T16:31:57;2.00;99.90
23079;DHT22;11707;50.830;4.364;2022-12-18T16:34:33;2.00;99.90
23079;DHT22;11707;50.830;4.364;2022-12-18T16:37:07;2.00;99.90
23079;DHT22;11707;50.830;4.364;2022-12-18T16:39:34;2.00;99.90
23079;DHT22;11707;50.830;4.364;2022-12-18T16:42:01;2.00;99.90
23079;DHT22;11707;50.830;4.364;2022-12-18T16:44:27;2.00;99.90
23079;DHT22;11707;50.830;4.364;2022-12-18T16:46:53;2.00;99.90
23079;DHT22;11707;50.830;4.364;2022-12-18T16:49:19;2.10;99.90
23079;DHT22;11707;50.830;4.364;2022-12-18T16:51:48;2.00;99.90
23079;DHT22;11707;50.830;4.364;2022-12-18T16:54:14;2.10;99.90
23079;DHT22;11707;50.830;4.364;2022-12-18T16:56:40;2.10;99.90
23079;DHT22;11707;50.830;4.364;2022-12-18T16:59:09;2.00;99.90
23079;DHT22;11707;50.830;4.364;2022-12-18T17:01:35;2.10;99.90
23079;DHT22;11707;50.830;4.364;2022-12-18T17:04:03;2.10;99.90
23079;DHT22;11707;50.830;4.364;2022-12-18T17:06:32;2.20;99.90
23079;DHT22;11707;50.830;4.364;2022-12-18T17:09:00;2.10;99.90
23079;DHT22;11707;50.830;4.364;2022-12-18T17:11:27;2.20;99.90
23079;DHT22;11707;50.830;4.364;2022-12-18T17:13:53;2.20;99.90
23079;DHT22;11707;50.830;4.364;2022-12-18T17:16:19;2.30;99.90
23079;DHT22;11707;50.830;4.364;2022-12-18T17:18:45;2.30;99.90
23079;DHT22;11707;50.830;4.364;2022-12-18T17:21:12;2.20;99.90
23079;DHT22;11707;50.830;4.364;2022-12-18T17:23:40;2.20;99.90